Flight Track Log - Related Links

Times and Time Zones

All times are in EDT time to prevent confusion due to time zone crossing. See the AAL832 flight status page for this flight to view local times or setup timezone preferences in your user account.

Time Position Orientation Groundspeed Altitude Reporting Facility
EDT Latitude Longitude Course Direction KTS MPH feet Rate Location/Type
Mon 08:51:44 AM 39.1833 -76.7000 211° Southwest 173 199 1,200  Level Potomac TRACON
Mon 08:52:50 AM 39.1833 -76.7833 270° West 217 250 3,300 2,100 Climbing Potomac TRACON
Mon 08:53:44 AM 39.2000 -76.8500 288° West 234 269 5,400 2,368 Climbing Potomac TRACON
Mon 08:54:00 AM 39.2000 -77.0683 270° West  Level FlightAware Approximate
Mon 08:54:44 AM 39.2167 -76.9333 284° West 252 290 7,800  Level Potomac TRACON
Mon 08:55:00 AM 39.1630 -77.1825 211° Southwest  Level FlightAware Approximate
Mon 08:55:44 AM 39.2167 -77.0333 270° West 256 295 10,000  Level Potomac TRACON
Mon 08:56:00 AM 39.0704 -77.2545 211° Southwest  Level FlightAware Approximate
Mon 08:58:14 AM 39.1272 -77.2372 241° Southwest 262 302 14,300  Level Washington Center
Mon 08:59:13 AM 39.0944 -77.3542 250° West 300 345 15,500 1,613 Climbing Washington Center
Mon 09:00:13 AM 39.0592 -77.4761 250° West 346 398 17,500 2,182 Climbing Washington Center
Mon 09:01:14 AM 39.0192 -77.6194 250° West 386 444 19,900 2,000 Climbing Washington Center
Mon 09:02:13 AM 38.9881 -77.7361 251° West 391 450 21,500 1,563 Climbing Washington Center
Mon 09:03:13 AM 38.9458 -77.8844 250° West 391 450 23,000 1,475 Climbing Washington Center
Mon 09:04:15 AM 38.9078 -78.0192 250° West 401 461 24,500 1,500 Climbing Washington Center
Mon 09:05:13 AM 38.8675 -78.1539 249° West 401 461 26,000 1,373 Climbing Washington Center
Mon 09:06:13 AM 38.8517 -78.3025 262° West 401 461 27,200 1,240 Climbing Washington Center
Mon 09:07:14 AM 38.8503 -78.4492 269° West 406 467 28,500 1,426 Climbing Washington Center
Mon 09:08:15 AM 38.8486 -78.5983 269° West 413 475 30,100 1,388 Climbing Washington Center
Mon 09:09:15 AM 38.8472 -78.7422 269° West 413 475 31,300 966 Climbing Washington Center
Mon 09:10:13 AM 38.8456 -78.8833 269° West 402 463 32,000 356 Climbing Washington Center
Mon 09:11:13 AM 38.8436 -79.0219 269° West 397 457 32,000  Level Washington Center
Mon 09:12:14 AM 38.8417 -79.1606 269° West 397 457 32,000  Level Washington Center
Mon 09:13:13 AM 38.8231 -79.2981 260° West 397 457 32,000  Level Washington Center
Mon 09:14:13 AM 38.7997 -79.4356 258° West 397 457 32,000  Level Washington Center
Mon 09:15:14 AM 38.7792 -79.5622 258° West 402 463 32,000  Level Washington Center
Mon 09:16:15 AM 38.7536 -79.6967 256° West 407 468 32,000  Level Washington Center
Mon 09:17:13 AM 38.7256 -79.8467 257° West 407 468 32,000  Level Washington Center
Mon 09:18:42 AM 38.6900 -80.0228 256° West 387 445 32,000  Level Indianapolis Center
Mon 09:19:44 AM 38.6633 -80.1594 256° West 393 452 32,000  Level Indianapolis Center
Mon 09:20:45 AM 38.6394 -80.2917 257° West 384 442 32,000  Level Indianapolis Center
Mon 09:21:46 AM 38.6092 -80.4514 256° West 385 443 32,000  Level Indianapolis Center
Mon 09:22:47 AM 38.5850 -80.5842 257° West 385 443 32,000  Level Indianapolis Center
Mon 09:23:48 AM 38.5583 -80.7186 256° West 389 448 32,000  Level Indianapolis Center
Mon 09:24:49 AM 38.5325 -80.8522 256° West 387 445 32,000  Level Indianapolis Center
Mon 09:25:51 AM 38.5064 -80.9875 256° West 390 449 32,000  Level Indianapolis Center
Mon 09:26:52 AM 38.4794 -81.1228 256° West 391 450 32,000  Level Indianapolis Center
Mon 09:27:53 AM 38.4528 -81.2578 256° West 390 449 32,000  Level Indianapolis Center
Mon 09:28:54 AM 38.4258 -81.3931 256° West 389 448 32,000  Level Indianapolis Center
Mon 09:29:55 AM 38.3989 -81.5269 256° West 387 445 32,000  Level Indianapolis Center
Mon 09:30:57 AM 38.3717 -81.6628 256° West 390 449 32,000  Level Indianapolis Center
Mon 09:31:58 AM 38.3425 -81.7972 255° West 392 451 32,000  Level Indianapolis Center
Mon 09:32:59 AM 38.3044 -81.9289 250° West 395 455 32,000  Level Indianapolis Center
Mon 09:34:01 AM 38.2678 -82.0639 251° West 401 461 32,000  Level Indianapolis Center
Mon 09:35:02 AM 38.2311 -82.1964 251° West 398 458 32,000  Level Indianapolis Center
Mon 09:36:03 AM 38.1933 -82.3306 250° West 401 461 32,000  Level Indianapolis Center
Mon 09:37:05 AM 38.1472 -82.4922 250° West 403 464 32,000  Level Indianapolis Center
Mon 09:38:06 AM 38.1094 -82.6239 250° West 402 463 32,000  Level Indianapolis Center
Mon 09:39:07 AM 38.0706 -82.7542 249° West 398 458 32,000  Level Indianapolis Center
Mon 09:40:09 AM 38.0319 -82.8889 250° West 406 467 32,000  Level Indianapolis Center
Mon 09:41:10 AM 37.9936 -83.0236 250° West 407 468 32,000  Level Indianapolis Center
Mon 09:42:11 AM 37.9539 -83.1581 249° West 408 470 32,000  Level Indianapolis Center
Mon 09:43:13 AM 37.9139 -83.2925 249° West 409 471 32,000  Level Indianapolis Center
Mon 09:44:14 AM 37.8669 -83.4519 250° West 413 475 32,000  Level Indianapolis Center
Mon 09:45:16 AM 37.8267 -83.5858 249° West 409 471 32,000 49 Level Indianapolis Center
Mon 09:46:17 AM 37.7875 -83.7194 250° West 407 468 32,100 590 Climbing Indianapolis Center
Mon 09:47:18 AM 37.7478 -83.8503 249° West 402 463 33,200 927 Climbing Indianapolis Center
Mon 09:48:20 AM 37.7094 -83.9764 249° West 391 450 34,000 390 Climbing Indianapolis Center
Mon 09:49:21 AM 37.6714 -84.1014 249° West 383 441 34,000  Level Indianapolis Center
Mon 09:50:22 AM 37.6333 -84.2281 249° West 385 443 34,000  Level Indianapolis Center
Mon 09:51:24 AM 37.5944 -84.3528 249° West 383 441 34,000  Level Indianapolis Center
Mon 09:52:25 AM 37.5500 -84.4981 249° West 382 440 34,000  Level Indianapolis Center
Mon 09:53:27 AM 37.5111 -84.6242 249° West 384 442 34,000  Level Indianapolis Center
Mon 09:54:29 AM 37.4714 -84.7483 248° West 383 441 34,000  Level Indianapolis Center
Mon 09:55:30 AM 37.4328 -84.8742 249° West 383 441 34,000  Level Indianapolis Center
Mon 09:56:32 AM 37.3939 -84.9989 249° West 384 442 34,000  Level Indianapolis Center
Mon 09:57:33 AM 37.3553 -85.1236 249° West 382 440 34,000  Level Indianapolis Center
Mon 09:58:35 AM 37.3147 -85.2494 248° West 388 447 34,000  Level Indianapolis Center
Mon 09:59:36 AM 37.2678 -85.3969 248° West 389 448 34,000  Level Indianapolis Center
Mon 10:00:38 AM 37.2308 -85.5158 249° West 389 448 34,000  Level Indianapolis Center
Mon 10:01:40 AM 37.1908 -85.6397 248° West 393 452 34,000  Level Indianapolis Center
Mon 10:02:41 AM 37.1500 -85.7686 248° West 395 455 34,000  Level Indianapolis Center
Mon 10:03:43 AM 37.0997 -85.9186 247° West 396 456 34,000  Level Indianapolis Center
Mon 10:04:45 AM 37.0589 -86.0489 249° West 398 458 34,000  Level Indianapolis Center
Mon 10:05:46 AM 37.0167 -86.1761 247° West 395 455 34,000  Level Indianapolis Center
Mon 10:06:48 AM 36.9742 -86.3058 248° West 399 459 34,000  Level Indianapolis Center
Mon 10:07:47 AM 36.9325 -86.4406 249° West 398 458 34,000  Level Memphis Center
Mon 10:08:47 AM 36.9094 -86.5739 258° West 398 458 34,000  Level Memphis Center
Mon 10:09:47 AM 36.8867 -86.7125 258° West 398 458 34,000  Level Memphis Center
Mon 10:10:47 AM 36.8656 -86.8508 259° West 403 464 34,000  Level Memphis Center
Mon 10:11:47 AM 36.8403 -86.9894 257° West 413 475 34,000  Level Memphis Center
Mon 10:12:47 AM 36.8189 -87.1278 259° West 413 475 34,000  Level Memphis Center
Mon 10:13:47 AM 36.7953 -87.2658 258° West 413 475 34,000  Level Memphis Center
Mon 10:14:47 AM 36.7756 -87.3911 259° West 413 475 34,000  Level Memphis Center
Mon 10:15:47 AM 36.7497 -87.5319 257° West 413 475 34,000  Level Memphis Center
Mon 10:16:47 AM 36.7256 -87.6725 258° West 413 475 34,000  Level Memphis Center
Mon 10:17:47 AM 36.7014 -87.8078 257° West 413 475 34,000  Level Memphis Center
Mon 10:18:47 AM 36.6772 -87.9483 258° West 413 475 34,000  Level Memphis Center
Mon 10:19:47 AM 36.6547 -88.0861 259° West 411 473 34,000  Level Memphis Center
Mon 10:20:47 AM 36.6300 -88.2239 257° West 411 473 34,000  Level Memphis Center
Mon 10:21:47 AM 36.6072 -88.3614 258° West 411 473 34,000  Level Memphis Center
Mon 10:22:47 AM 36.5825 -88.5017 258° West 411 473 34,000  Level Memphis Center
Mon 10:23:47 AM 36.5553 -88.6417 256° West 411 473 34,000  Level Memphis Center
Mon 10:24:47 AM 36.5300 -88.7817 257° West 411 473 34,000  Level Memphis Center
Mon 10:25:47 AM 36.5006 -88.9319 256° West 411 473 34,000  Level Memphis Center
Mon 10:26:47 AM 36.4772 -89.0717 258° West 416 479 34,000  Level Memphis Center
Mon 10:27:47 AM 36.4572 -89.1778 257° West 411 473 34,000  Level Memphis Center
Mon 10:28:47 AM 36.4275 -89.3408 257° West 426 490 34,000  Level Memphis Center
Mon 10:29:47 AM 36.4014 -89.4753 256° West 439 505 34,000  Level Memphis Center
Mon 10:30:47 AM 36.3711 -89.6275 256° West 434 499 34,000  Level Memphis Center
Mon 10:31:47 AM 36.3447 -89.7617 256° West 423 487 34,000  Level Memphis Center
Mon 10:32:47 AM 36.3161 -89.9036 256° West 417 480 34,000  Level Memphis Center
Mon 10:33:47 AM 36.2894 -90.0453 257° West 417 480 34,000  Level Memphis Center
Mon 10:34:47 AM 36.2628 -90.1844 257° West 417 480 34,000  Level Memphis Center
Mon 10:35:47 AM 36.2336 -90.3261 256° West 417 480 34,000  Level Memphis Center
Mon 10:36:47 AM 36.2064 -90.4650 256° West 417 480 34,000  Level Memphis Center
Mon 10:37:47 AM 36.1792 -90.6064 257° West 417 480 34,000  Level Memphis Center
Mon 10:38:47 AM 36.1497 -90.7478 256° West 417 480 34,000  Level Memphis Center
Mon 10:39:47 AM 36.1219 -90.8864 256° West 422 486 34,000  Level Memphis Center
Mon 10:40:47 AM 36.0922 -91.0247 255° West 422 486 34,000  Level Memphis Center
Mon 10:41:47 AM 36.0642 -91.1658 256° West 417 480 34,000  Level Memphis Center
Mon 10:42:47 AM 36.0361 -91.3067 256° West 417 480 34,000  Level Memphis Center
Mon 10:43:47 AM 36.0039 -91.4475 254° West 422 486 34,000  Level Memphis Center
Mon 10:44:47 AM 35.9775 -91.5908 257° West 428 493 34,000  Level Memphis Center
Mon 10:45:47 AM 35.9467 -91.7519 257° West 433 498 34,000  Level Memphis Center
Mon 10:46:47 AM 35.9178 -91.8897 256° West 428 493 34,000  Level Memphis Center
Mon 10:47:47 AM 35.8867 -92.0328 255° West 428 493 34,000  Level Memphis Center
Mon 10:48:47 AM 35.8578 -92.1756 256° West 428 493 34,000  Level Memphis Center
Mon 10:49:47 AM 35.8264 -92.3183 255° West 433 498 34,000  Level Memphis Center
Mon 10:50:47 AM 35.7947 -92.4583 254° West 433 498 34,000  Level Memphis Center
Mon 10:51:47 AM 35.7653 -92.6008 256° West 433 498 34,000  Level Memphis Center
Mon 10:52:47 AM 35.7333 -92.7456 255° West 433 498 34,000  Level Memphis Center
Mon 10:53:47 AM 35.7033 -92.8906 256° West 433 498 34,000  Level Memphis Center
Mon 10:54:47 AM 35.6711 -93.0378 255° West 433 498 34,000  Level Memphis Center
Mon 10:55:47 AM 35.6367 -93.1822 254° West 452 520 34,000  Level Memphis Center
Mon 10:56:47 AM 35.6058 -93.3369 256° West 452 520 34,000  Level Memphis Center
Mon 10:57:47 AM 35.5711 -93.4786 253° West 452 520 34,000  Level Memphis Center
Mon 10:58:47 AM 35.5361 -93.6278 254° West 452 520 34,000  Level Memphis Center
Mon 10:59:47 AM 35.5031 -93.7744 255° West 452 520 34,000  Level Memphis Center
Mon 11:00:47 AM 35.4694 -93.9261 255° West 452 520 34,000  Level Memphis Center
Mon 11:01:47 AM 35.4317 -94.0747 253° West 452 520 34,000  Level Memphis Center
Mon 11:03:43 AM 35.3250 -94.3425 244° Southwest 434 499 34,000  Level Fort Worth Center
Mon 11:04:43 AM 35.2253 -94.4503 221° Southwest 447 514 34,000  Level Fort Worth Center
Mon 11:05:43 AM 35.1278 -94.5578 222° Southwest 466 536 34,000  Level Fort Worth Center
Mon 11:06:43 AM 35.0300 -94.6625 221° Southwest 471 542 34,000  Level Fort Worth Center
Mon 11:07:43 AM 34.9422 -94.7592 222° Southwest 471 542 34,000  Level Fort Worth Center
Mon 11:08:43 AM 34.8403 -94.8711 222° Southwest 476 548 34,000 -100 Level Fort Worth Center
Mon 11:09:43 AM 34.7444 -94.9750 222° Southwest 471 542 33,800 -600 Descending Fort Worth Center
Mon 11:10:43 AM 34.6503 -95.0711 220° Southwest 466 536 32,800 -1,000 Descending Fort Worth Center
Mon 11:11:43 AM 34.5561 -95.1719 221° Southwest 456 525 31,800 -1,000 Descending Fort Worth Center
Mon 11:12:43 AM 34.4619 -95.2725 221° Southwest 456 525 30,800 -1,000 Descending Fort Worth Center
Mon 11:13:43 AM 34.3694 -95.3681 220° Southwest 455 524 29,800 -1,000 Descending Fort Worth Center
Mon 11:14:43 AM 34.2731 -95.4708 221° Southwest 455 524 28,800 -1,000 Descending Fort Worth Center
Mon 11:15:43 AM 34.1744 -95.5733 221° Southwest 460 529 27,800 -1,000 Descending Fort Worth Center
Mon 11:16:43 AM 34.0842 -95.6681 221° Southwest 451 519 26,800 -1,000 Descending Fort Worth Center
Mon 11:17:43 AM 33.9914 -95.7628 220° Southwest 444 511 25,800 -1,000 Descending Fort Worth Center
Mon 11:18:43 AM 33.9008 -95.8569 221° Southwest 439 505 24,800 -1,400 Descending Fort Worth Center
Mon 11:20:43 AM 33.7236 -96.0450 221° Southwest 433 498 21,600 -1,667 Descending Fort Worth Center
Mon 11:21:43 AM 33.6303 -96.1211 214° Southwest 415 478 19,800 -1,950 Descending Fort Worth Center
Mon 11:22:43 AM 33.5308 -96.1900 210° Southwest 403 464 17,700 -1,750 Descending Fort Worth Center
Mon 11:23:43 AM 33.4397 -96.2558 211° Southwest 398 458 16,300 -1,700 Descending Fort Worth Center
Mon 11:24:43 AM 33.3717 -96.3439 227° Southwest 371 427 14,300 -1,850 Descending Fort Worth Center
Mon 11:25:43 AM 33.3097 -96.4417 233° Southwest 371 427 12,600 -1,650 Descending Fort Worth Center
Mon 11:26:43 AM 33.2583 -96.5367 237° Southwest 354 407 11,000 -900 Descending Fort Worth Center
Mon 11:27:23 AM 33.2167 -96.6000 232° Southwest 345 397 11,100 60 Climbing Dallas / Fort Worth TRACON
Mon 11:28:23 AM 33.1667 -96.6667 228° Southwest 312 359 11,100  Level Dallas / Fort Worth TRACON
Mon 11:29:23 AM 33.1000 -96.7500 226° Southwest 313 360 11,100  Level Dallas / Fort Worth TRACON
Mon 11:30:29 AM 33.0333 -96.8333 226° Southwest 314 361 11,100  Level Dallas / Fort Worth TRACON
Mon 11:31:23 AM 32.9833 -96.8833 220° Southwest 272 313 11,100 -400 Level Dallas / Fort Worth TRACON
Mon 11:32:29 AM 32.9000 -96.9000 190° South 255 293 10,300 -1,278 Descending Dallas / Fort Worth TRACON
Mon 11:33:11 AM 32.8500 -96.9000 180° South 244 281 8,800 -2,000 Descending Dallas / Fort Worth TRACON
Mon 11:34:11 AM 32.7833 -96.9000 180° South 234 269 6,900 -2,000 Descending Dallas / Fort Worth TRACON
Mon 11:35:11 AM 32.7333 -96.9167 196° South 230 265 4,800 -1,900 Descending Dallas / Fort Worth TRACON
Mon 11:36:11 AM 32.7167 -96.9833 253° West 228 262 3,100 -1,050 Descending Dallas / Fort Worth TRACON
Mon 11:37:11 AM 32.7667 -97.0167 331° Northwest 187 215 2,700 -600 Descending Dallas / Fort Worth TRACON
Mon 11:38:11 AM 32.8000 -97.0167 360° North 161 185 1,900 -700 Descending Dallas / Fort Worth TRACON
Mon 11:39:11 AM 32.8500 -97.0167 360° North 132 152 1,300 -600 Descending Dallas / Fort Worth TRACON

Login

Don't have an account? Register now (free) for customized features, flight alerts, and more!